createdAt,value
2018-07-10T00:00:26.160Z,87.90
2018-07-10T00:03:14.985Z,88.30
2018-07-10T00:05:54.614Z,88.60
2018-07-10T00:11:48.798Z,89.10
2018-07-10T00:14:17.118Z,90.00
2018-07-10T00:16:45.460Z,89.60
2018-07-10T00:19:13.851Z,90.00
2018-07-10T00:21:42.209Z,90.00
2018-07-10T00:24:10.590Z,90.20
2018-07-10T00:26:38.932Z,90.40
2018-07-10T00:29:07.281Z,90.60
2018-07-10T00:34:03.694Z,90.20
2018-07-10T00:36:32.212Z,90.50
2018-07-10T00:39:10.212Z,90.30
2018-07-10T00:41:41.578Z,90.30
2018-07-10T00:44:10.070Z,90.60
2018-07-10T00:46:40.888Z,90.70
2018-07-10T00:49:09.273Z,90.70
2018-07-10T00:51:38.727Z,90.80
2018-07-10T00:54:07.308Z,91.00
2018-07-10T00:56:35.708Z,91.00
2018-07-10T00:59:04.763Z,90.90
2018-07-10T01:01:33.658Z,90.90
2018-07-10T01:04:02.016Z,90.80
2018-07-10T01:06:30.382Z,91.20
2018-07-10T01:08:58.739Z,91.10
2018-07-10T01:11:27.082Z,90.90
2018-07-10T01:13:55.507Z,91.20
2018-07-10T01:16:34.219Z,91.30
2018-07-10T01:19:04.504Z,91.30
2018-07-10T01:21:32.834Z,91.30
2018-07-10T01:24:03.027Z,91.40
2018-07-10T01:26:37.187Z,91.60
2018-07-10T01:29:11.514Z,91.60
2018-07-10T01:31:41.750Z,91.70
2018-07-10T01:34:10.145Z,91.70
2018-07-10T01:36:38.535Z,91.90
2018-07-10T01:39:07.350Z,91.70
2018-07-10T01:41:36.345Z,91.50
2018-07-10T01:44:04.886Z,91.60
2018-07-10T01:46:33.783Z,91.60
2018-07-10T01:49:02.422Z,91.50
2018-07-10T01:51:31.312Z,91.40
2018-07-10T01:53:59.675Z,91.70
2018-07-10T01:56:28.286Z,91.70
2018-07-10T01:58:56.905Z,91.40
2018-07-10T02:01:25.307Z,91.90
2018-07-10T02:03:54.804Z,91.90
2018-07-10T02:06:23.207Z,91.70
2018-07-10T02:08:51.626Z,91.60
2018-07-10T02:11:20.046Z,91.70
2018-07-10T02:13:48.677Z,91.80
2018-07-10T02:16:17.101Z,92.00
2018-07-10T02:18:45.865Z,91.90
2018-07-10T02:21:14.343Z,91.90
2018-07-10T02:23:44.653Z,92.10
2018-07-10T02:26:15.297Z,91.90
2018-07-10T02:28:43.866Z,91.80
2018-07-10T02:31:12.315Z,91.90
2018-07-10T02:33:40.736Z,91.80
2018-07-10T02:36:09.177Z,91.80
2018-07-10T02:38:42.526Z,92.00
2018-07-10T02:41:15.102Z,91.90
2018-07-10T02:43:46.080Z,92.10
2018-07-10T02:46:14.494Z,92.00
2018-07-10T02:48:42.926Z,92.20
2018-07-10T02:51:11.494Z,92.30
2018-07-10T02:53:42.121Z,92.10
2018-07-10T02:56:12.022Z,92.10
2018-07-10T02:58:40.421Z,91.90
2018-07-10T03:01:08.828Z,91.90
2018-07-10T03:03:39.118Z,91.70
2018-07-10T03:06:07.565Z,91.70
2018-07-10T03:08:36.626Z,91.80
2018-07-10T03:11:05.150Z,91.70
2018-07-10T03:13:33.553Z,91.90
2018-07-10T03:16:01.975Z,92.00
2018-07-10T03:18:31.590Z,92.10
2018-07-10T03:20:59.986Z,92.30
2018-07-10T03:23:28.401Z,92.40
2018-07-10T03:25:56.755Z,92.50
2018-07-10T03:28:25.382Z,92.50
2018-07-10T03:30:53.743Z,92.50
2018-07-10T03:33:22.182Z,92.80
2018-07-10T03:35:50.578Z,92.80
2018-07-10T03:38:18.940Z,92.40
2018-07-10T03:40:47.318Z,92.20
2018-07-10T03:43:15.726Z,92.10
2018-07-10T03:45:44.199Z,92.10
2018-07-10T03:48:12.585Z,92.40
2018-07-10T03:50:40.996Z,92.30
2018-07-10T03:53:09.706Z,92.40
2018-07-10T03:55:38.647Z,92.40
2018-07-10T03:58:07.690Z,92.30
2018-07-10T04:00:37.039Z,91.90
2018-07-10T04:03:05.524Z,91.80
2018-07-10T04:08:04.646Z,92.20
2018-07-10T04:10:35.202Z,92.30
2018-07-10T04:13:19.231Z,91.80
2018-07-10T04:15:50.214Z,91.80
2018-07-10T04:21:00.725Z,91.40
2018-07-10T04:23:38.602Z,91.60
2018-07-10T04:26:11.751Z,91.30
2018-07-10T04:28:40.880Z,91.30
2018-07-10T04:32:16.335Z,91.40
2018-07-10T04:34:45.039Z,91.50
2018-07-10T04:37:14.020Z,91.70
2018-07-10T04:39:43.807Z,91.80
2018-07-10T04:42:41.512Z,91.60
2018-07-10T04:45:11.097Z,91.30
2018-07-10T04:47:50.366Z,91.30
2018-07-10T04:50:27.231Z,91.40
2018-07-10T04:53:05.943Z,91.50
2018-07-10T04:55:41.725Z,91.90
2018-07-10T04:58:16.699Z,91.40
2018-07-10T05:00:46.097Z,91.50
2018-07-10T05:03:15.798Z,91.70
2018-07-10T05:05:44.700Z,91.50
2018-07-10T05:08:13.980Z,91.70
2018-07-10T05:13:10.474Z,91.90
2018-07-10T05:15:39.127Z,91.70
2018-07-10T05:18:09.875Z,91.50
2018-07-10T05:20:40.732Z,91.40
2018-07-10T05:23:09.211Z,91.40
2018-07-10T05:25:38.819Z,91.60
2018-07-10T05:28:07.234Z,91.60
2018-07-10T05:30:36.538Z,91.80
2018-07-10T05:33:05.351Z,91.70
2018-07-10T05:35:33.739Z,91.30
2018-07-10T05:38:04.841Z,91.00
2018-07-10T05:40:33.294Z,90.90
2018-07-10T05:43:03.700Z,90.90
2018-07-10T05:45:32.126Z,90.80
2018-07-10T05:48:01.956Z,90.70
2018-07-10T05:50:35.265Z,90.80
2018-07-10T05:53:04.990Z,90.70
2018-07-10T05:55:33.356Z,91.20
2018-07-10T05:58:02.156Z,90.20
2018-07-10T06:00:31.469Z,89.70
2018-07-10T06:02:59.825Z,90.00
2018-07-10T06:05:28.703Z,89.70
2018-07-10T06:07:58.169Z,89.80
2018-07-10T06:10:26.559Z,89.60
2018-07-10T06:12:55.796Z,88.80
2018-07-10T06:15:24.175Z,89.10
2018-07-10T06:17:52.557Z,89.70
2018-07-10T06:20:20.957Z,89.00
2018-07-10T06:22:51.009Z,88.60
2018-07-10T06:25:19.628Z,87.70
2018-07-10T06:28:00.358Z,88.50
2018-07-10T06:30:28.962Z,86.90
2018-07-10T06:33:04.526Z,86.80
2018-07-10T06:35:46.414Z,86.90
2018-07-10T06:38:17.691Z,87.30
2018-07-10T06:40:49.567Z,87.70
2018-07-10T06:43:25.714Z,88.50
2018-07-10T06:45:54.200Z,88.70
2018-07-10T06:48:23.034Z,88.90
2018-07-10T06:50:51.538Z,88.60
2018-07-10T06:53:23.078Z,88.40
2018-07-10T06:55:58.834Z,89.00
2018-07-10T06:58:32.649Z,89.50
2018-07-10T07:01:01.171Z,88.70
2018-07-10T07:03:29.567Z,87.60
2018-07-10T07:05:58.209Z,87.90
2018-07-10T07:08:26.648Z,88.00
2018-07-10T07:10:55.087Z,87.80
2018-07-10T07:13:23.520Z,87.70
2018-07-10T07:15:51.978Z,86.50
2018-07-10T07:18:20.403Z,85.60
2018-07-10T07:20:48.809Z,86.30
2018-07-10T07:23:17.221Z,86.10
2018-07-10T07:25:45.725Z,86.60
2018-07-10T07:28:14.155Z,86.40
2018-07-10T07:30:42.603Z,86.80
2018-07-10T07:33:10.993Z,87.30
2018-07-10T07:35:39.414Z,86.90
2018-07-10T07:38:07.840Z,86.80
2018-07-10T07:40:36.279Z,86.20
2018-07-10T07:43:04.734Z,86.40
2018-07-10T07:45:33.195Z,86.20
2018-07-10T07:48:01.597Z,85.90
2018-07-10T07:50:30.032Z,86.10
2018-07-10T07:52:58.469Z,85.70
2018-07-10T07:55:26.874Z,85.70
2018-07-10T07:57:55.289Z,85.40
2018-07-10T08:00:23.668Z,86.00
2018-07-10T08:02:52.030Z,86.00
2018-07-10T08:05:20.500Z,86.40
2018-07-10T08:07:48.915Z,86.70
2018-07-10T08:10:17.338Z,85.80
2018-07-10T08:12:45.796Z,85.40
2018-07-10T08:15:14.198Z,85.40
2018-07-10T08:17:42.566Z,85.50
2018-07-10T08:20:11.023Z,85.60
2018-07-10T08:22:39.426Z,85.60
2018-07-10T08:25:07.875Z,85.30
2018-07-10T08:27:37.850Z,85.30
2018-07-10T08:30:06.541Z,86.00
2018-07-10T08:32:35.706Z,86.00
2018-07-10T08:35:04.145Z,86.10
2018-07-10T08:37:32.545Z,86.20
2018-07-10T08:40:01.002Z,86.30
2018-07-10T08:42:29.405Z,86.10
2018-07-10T08:44:57.805Z,86.50
2018-07-10T08:47:26.260Z,84.80
2018-07-10T08:49:55.396Z,82.70
2018-07-10T08:52:24.580Z,81.40
2018-07-10T08:54:53.001Z,80.10
2018-07-10T08:57:21.571Z,79.90
2018-07-10T08:59:50.021Z,80.10
2018-07-10T09:02:18.498Z,81.10
2018-07-10T09:04:46.914Z,81.40
2018-07-10T09:07:15.365Z,79.50
2018-07-10T09:09:43.784Z,78.20
2018-07-10T09:12:12.182Z,78.00
2018-07-10T09:14:40.624Z,78.00
2018-07-10T09:17:09.213Z,77.40
2018-07-10T09:19:37.821Z,77.40
2018-07-10T09:22:09.016Z,77.30
2018-07-10T09:24:43.698Z,76.90
2018-07-10T09:27:12.440Z,76.70
2018-07-10T09:29:40.873Z,76.50
2018-07-10T09:32:09.689Z,75.10
2018-07-10T09:34:39.525Z,75.30
2018-07-10T09:37:13.410Z,74.60
2018-07-10T09:39:41.849Z,73.60
2018-07-10T09:42:10.362Z,73.40
2018-07-10T09:44:38.824Z,73.50
2018-07-10T09:47:07.257Z,73.70
2018-07-10T09:49:35.674Z,73.80
2018-07-10T09:52:04.103Z,74.50
2018-07-10T09:54:32.540Z,74.10
2018-07-10T09:57:00.980Z,73.70
2018-07-10T09:59:29.574Z,73.70
2018-07-10T10:02:02.234Z,74.00
2018-07-10T10:04:31.374Z,73.70
2018-07-10T10:06:59.781Z,72.40
2018-07-10T10:09:28.190Z,72.20
2018-07-10T10:11:56.625Z,72.30
2018-07-10T10:14:25.004Z,70.80
2018-07-10T10:16:53.434Z,70.20
2018-07-10T10:19:21.931Z,70.20
2018-07-10T10:21:50.378Z,70.20
2018-07-10T10:24:18.834Z,70.70
2018-07-10T10:26:47.303Z,69.00
2018-07-10T10:29:15.753Z,70.00
2018-07-10T10:31:44.197Z,69.80
2018-07-10T10:34:12.787Z,70.30
2018-07-10T10:36:41.283Z,70.50
2018-07-10T10:39:09.757Z,70.40
2018-07-10T10:41:39.282Z,69.90
2018-07-10T10:44:07.734Z,69.20
2018-07-10T10:46:36.198Z,69.50
2018-07-10T10:49:04.631Z,71.50
2018-07-10T10:51:33.681Z,70.80
2018-07-10T10:54:02.356Z,71.60
2018-07-10T10:56:30.770Z,72.80
2018-07-10T10:58:59.300Z,73.70
2018-07-10T11:01:28.337Z,73.60
2018-07-10T11:03:57.653Z,74.40
2018-07-10T11:06:27.083Z,74.50
2018-07-10T11:08:55.507Z,74.20
2018-07-10T11:11:23.935Z,73.20
2018-07-10T11:13:52.396Z,73.10
2018-07-10T11:16:20.856Z,74.70
2018-07-10T11:18:59.807Z,74.60
2018-07-10T11:22:06.638Z,75.40
2018-07-10T11:24:51.012Z,74.60
2018-07-10T11:27:58.794Z,73.50
2018-07-10T11:30:27.283Z,75.00
2018-07-10T11:32:55.621Z,74.00
2018-07-10T11:35:24.301Z,73.60
2018-07-10T11:37:52.997Z,74.00
2018-07-10T11:40:21.531Z,74.10
2018-07-10T11:42:49.897Z,74.10
2018-07-10T11:45:18.281Z,73.90
2018-07-10T11:47:46.654Z,73.60
2018-07-10T11:50:15.202Z,73.10
2018-07-10T11:52:43.578Z,73.50
2018-07-10T11:55:12.029Z,74.00
2018-07-10T11:57:40.749Z,74.10
2018-07-10T12:00:09.135Z,74.60
2018-07-10T12:02:49.177Z,73.50
2018-07-10T12:05:21.789Z,73.30
2018-07-10T12:07:54.793Z,73.00
2018-07-10T12:10:26.227Z,72.80
2018-07-10T12:12:54.813Z,72.30
2018-07-10T12:15:23.450Z,72.30
2018-07-10T12:17:54.782Z,72.50
2018-07-10T12:20:29.823Z,72.40
2018-07-10T12:22:59.049Z,72.80
2018-07-10T12:25:28.315Z,72.70
2018-07-10T12:27:57.082Z,73.00
2018-07-10T12:30:25.470Z,72.50
2018-07-10T12:32:53.906Z,72.50
2018-07-10T12:35:22.362Z,71.90
2018-07-10T12:37:50.881Z,72.20
2018-07-10T12:40:19.277Z,72.10
2018-07-10T12:42:47.698Z,72.10
2018-07-10T12:45:16.115Z,72.30
2018-07-10T12:47:44.541Z,72.40
2018-07-10T12:50:12.982Z,71.90
2018-07-10T12:52:41.405Z,71.10
2018-07-10T12:55:09.822Z,71.50
2018-07-10T12:57:40.816Z,70.50
2018-07-10T13:00:09.306Z,70.00
2018-07-10T13:02:48.429Z,70.90
2018-07-10T13:05:18.380Z,71.00
2018-07-10T13:07:46.926Z,71.80
2018-07-10T13:10:15.413Z,70.20
2018-07-10T13:12:44.277Z,70.60
2018-07-10T13:15:13.081Z,70.50
2018-07-10T13:17:43.857Z,69.80
2018-07-10T13:20:12.701Z,69.80
2018-07-10T13:22:41.118Z,70.90
2018-07-10T13:25:09.595Z,70.80
2018-07-10T13:27:37.996Z,71.10
2018-07-10T13:30:06.401Z,70.30
2018-07-10T13:32:34.974Z,70.10
2018-07-10T13:35:03.350Z,70.90
2018-07-10T13:37:32.747Z,70.80
2018-07-10T13:40:03.889Z,70.90
2018-07-10T13:42:54.886Z,71.10
2018-07-10T13:45:24.405Z,71.20
2018-07-10T13:47:52.821Z,70.50
2018-07-10T13:50:23.555Z,71.20
2018-07-10T13:52:52.888Z,71.10
2018-07-10T13:55:21.270Z,71.00
2018-07-10T13:57:55.450Z,71.60
2018-07-10T14:00:23.834Z,71.60
2018-07-10T14:02:53.996Z,72.50
2018-07-10T14:05:24.666Z,72.30
2018-07-10T14:07:53.097Z,72.40
2018-07-10T14:10:21.949Z,72.40
2018-07-10T14:12:50.389Z,72.60
2018-07-10T14:15:18.885Z,72.10
2018-07-10T14:17:47.894Z,72.10
2018-07-10T14:20:16.297Z,73.10
2018-07-10T14:22:44.856Z,74.60
2018-07-10T14:27:41.365Z,74.80
2018-07-10T14:30:09.698Z,74.10
2018-07-10T14:32:38.262Z,74.40
2018-07-10T14:35:06.666Z,74.90
2018-07-10T14:37:35.419Z,75.10
2018-07-10T14:40:03.808Z,74.90
2018-07-10T14:42:32.194Z,75.30
2018-07-10T14:45:03.718Z,75.30
2018-07-10T14:47:32.089Z,75.20
2018-07-10T14:50:00.901Z,75.00
2018-07-10T14:52:29.313Z,75.30
2018-07-10T14:54:57.821Z,75.70
2018-07-10T14:57:27.186Z,75.70
2018-07-10T14:59:55.581Z,75.90
2018-07-10T15:02:23.945Z,75.50
2018-07-10T15:04:52.322Z,76.00
2018-07-10T15:07:21.071Z,76.10
2018-07-10T15:09:49.449Z,76.60
2018-07-10T15:12:17.797Z,76.20
2018-07-10T15:14:46.284Z,76.50
2018-07-10T15:17:19.858Z,76.30
2018-07-10T15:19:48.210Z,76.40
2018-07-10T15:22:16.542Z,75.90
2018-07-10T15:24:44.916Z,76.00
2018-07-10T15:27:13.268Z,77.20
2018-07-10T15:29:41.666Z,76.40
2018-07-10T15:32:10.045Z,76.20
2018-07-10T15:34:38.414Z,76.20
2018-07-10T15:37:06.834Z,76.20
2018-07-10T15:39:35.250Z,76.00
2018-07-10T15:42:05.034Z,77.00
2018-07-10T15:44:33.407Z,76.30
2018-07-10T15:47:01.749Z,77.30
2018-07-10T15:49:30.126Z,76.30
2018-07-10T15:51:58.596Z,76.70
2018-07-10T15:54:26.948Z,76.80
2018-07-10T15:56:55.303Z,76.60
2018-07-10T15:59:23.728Z,77.20
2018-07-10T16:01:52.115Z,77.20
2018-07-10T16:04:20.493Z,77.40
2018-07-10T16:06:48.974Z,77.50
2018-07-10T16:09:19.460Z,77.30
2018-07-10T16:11:50.269Z,77.80
2018-07-10T16:14:18.627Z,78.30
2018-07-10T16:16:47.225Z,78.40
2018-07-10T16:19:18.653Z,78.40
2018-07-10T16:21:58.964Z,78.40
2018-07-10T16:24:27.334Z,78.20
2018-07-10T16:26:55.753Z,78.20
2018-07-10T16:29:24.682Z,78.10
2018-07-10T16:31:57.133Z,78.20
2018-07-10T16:34:25.545Z,78.40
2018-07-10T16:36:54.053Z,78.50
2018-07-10T16:39:22.544Z,78.90
2018-07-10T16:41:56.447Z,78.60
2018-07-10T16:44:25.378Z,78.40
2018-07-10T16:47:31.552Z,78.20
2018-07-10T16:50:04.845Z,78.40
2018-07-10T16:53:04.941Z,78.90
2018-07-10T16:55:33.378Z,79.00
2018-07-10T16:58:01.798Z,79.10
2018-07-10T17:00:30.613Z,78.40
2018-07-10T17:02:59.970Z,78.70
2018-07-10T17:05:28.384Z,78.80
2018-07-10T17:07:56.808Z,79.10
2018-07-10T17:10:25.249Z,78.40
2018-07-10T17:12:53.660Z,78.50
2018-07-10T17:15:22.085Z,78.70
2018-07-10T17:17:50.557Z,78.60
2018-07-10T17:20:19.108Z,78.90
2018-07-10T17:22:47.558Z,78.50
2018-07-10T17:25:16.631Z,79.00
2018-07-10T17:27:46.669Z,79.10
2018-07-10T17:30:15.109Z,79.00
2018-07-10T17:32:43.543Z,79.60
2018-07-10T17:35:11.942Z,79.00
2018-07-10T17:37:45.237Z,79.00
2018-07-10T17:40:14.009Z,79.00
2018-07-10T17:42:42.470Z,79.20
2018-07-10T17:45:11.970Z,79.60
2018-07-10T17:47:40.361Z,79.50
2018-07-10T17:50:08.730Z,79.50
2018-07-10T17:52:37.105Z,79.70
2018-07-10T17:55:05.486Z,79.70
2018-07-10T17:57:34.857Z,80.20
2018-07-10T18:00:03.817Z,80.80
2018-07-10T18:02:32.493Z,81.80
2018-07-10T18:05:00.862Z,82.40
2018-07-10T18:07:29.246Z,82.70
2018-07-10T18:09:57.602Z,83.40
2018-07-10T18:12:26.452Z,84.90
2018-07-10T18:14:55.006Z,84.80
2018-07-10T18:17:23.433Z,84.70
2018-07-10T18:19:51.821Z,84.60
2018-07-10T18:22:20.333Z,84.30
2018-07-10T18:24:48.841Z,85.20
2018-07-10T18:27:17.238Z,84.80
2018-07-10T18:29:45.662Z,84.30
2018-07-10T18:32:14.082Z,84.30
2018-07-10T18:34:42.469Z,84.00
2018-07-10T18:37:10.942Z,83.60
2018-07-10T18:39:39.437Z,83.50
2018-07-10T18:42:07.964Z,83.80
2018-07-10T18:44:36.652Z,83.40
2018-07-10T18:47:05.226Z,83.10
2018-07-10T18:49:33.640Z,83.10
2018-07-10T18:52:02.151Z,83.70
2018-07-10T18:54:34.848Z,83.80
2018-07-10T18:59:14.914Z,84.00
2018-07-10T19:01:54.288Z,84.00
2018-07-10T19:04:33.928Z,85.40
2018-07-10T19:07:02.301Z,85.30
2018-07-10T19:09:36.614Z,85.30
2018-07-10T19:12:07.501Z,85.40
2018-07-10T19:14:36.026Z,85.30
2018-07-10T19:17:08.802Z,85.30
2018-07-10T19:19:37.259Z,85.40
2018-07-10T19:22:06.987Z,85.20
2018-07-10T19:24:36.336Z,85.30
2018-07-10T19:27:04.999Z,85.70
2018-07-10T19:29:51.633Z,85.40
2018-07-10T19:32:20.057Z,85.80
2018-07-10T19:34:51.501Z,86.30
2018-07-10T19:37:19.966Z,86.00
2018-07-10T19:39:48.441Z,86.10
2018-07-10T19:42:16.946Z,86.20
2018-07-10T19:44:45.987Z,86.30
2018-07-10T19:47:14.441Z,86.40
2018-07-10T19:49:44.665Z,86.50
2018-07-10T19:52:13.081Z,87.00
2018-07-10T19:54:41.463Z,86.60
2018-07-10T19:57:10.333Z,86.50
2018-07-10T19:59:38.842Z,88.60
2018-07-10T20:02:07.222Z,90.50
2018-07-10T20:04:40.869Z,91.60
2018-07-10T20:07:17.069Z,92.30
2018-07-10T20:09:49.573Z,93.20
2018-07-10T20:12:20.252Z,93.60
2018-07-10T20:15:04.177Z,94.20
2018-07-10T20:17:35.003Z,94.60
2018-07-10T20:20:13.850Z,95.00
2018-07-10T20:24:55.492Z,95.30
2018-07-10T20:27:28.833Z,96.20
2018-07-10T20:30:04.623Z,97.30
2018-07-10T20:32:41.249Z,97.60
2018-07-10T20:35:17.471Z,97.50
2018-07-10T20:37:48.435Z,98.00
2018-07-10T20:40:26.180Z,98.20
2018-07-10T20:42:54.726Z,98.00
2018-07-10T20:45:23.132Z,98.70
2018-07-10T20:47:54.217Z,98.90
2018-07-10T20:50:46.405Z,98.70
2018-07-10T20:53:20.584Z,99.40
2018-07-10T20:55:53.497Z,99.40
2018-07-10T20:58:25.983Z,99.80
2018-07-10T21:01:06.553Z,99.90
2018-07-10T21:04:08.110Z,99.90
2018-07-10T21:07:11.916Z,99.90
2018-07-10T21:10:46.662Z,99.90
2018-07-10T21:13:39.527Z,99.90
2018-07-10T21:17:15.513Z,99.90
2018-07-10T21:19:56.625Z,99.90
2018-07-10T21:23:34.469Z,99.90
2018-07-10T21:26:18.265Z,99.90
2018-07-10T21:28:50.051Z,99.90
2018-07-10T21:31:29.196Z,99.90
2018-07-10T21:34:06.886Z,99.90
2018-07-10T21:39:15.299Z,99.90
2018-07-10T21:42:55.613Z,99.90
2018-07-10T21:45:33.351Z,99.90
2018-07-10T21:48:11.617Z,99.90
2018-07-10T21:50:52.326Z,99.90
2018-07-10T21:53:21.593Z,99.90
2018-07-10T21:55:50.123Z,99.90
2018-07-10T21:58:19.967Z,99.90
2018-07-10T22:02:15.516Z,99.90
2018-07-10T22:04:43.925Z,99.90
2018-07-10T22:07:13.561Z,99.90
2018-07-10T22:09:42.569Z,99.90
2018-07-10T22:12:14.066Z,99.90
2018-07-10T22:14:42.547Z,99.90
2018-07-10T22:17:24.629Z,99.90
2018-07-10T22:19:54.159Z,99.90
2018-07-10T22:22:28.251Z,99.90
2018-07-10T22:24:57.322Z,99.90
2018-07-10T22:27:25.827Z,99.90
2018-07-10T22:30:02.406Z,99.90
2018-07-10T22:32:38.273Z,99.90
2018-07-10T22:35:06.721Z,99.90
2018-07-10T22:37:35.137Z,99.90
2018-07-10T22:40:04.953Z,99.90
2018-07-10T22:42:33.421Z,99.90
2018-07-10T22:45:01.835Z,99.90
2018-07-10T22:47:33.869Z,99.90
2018-07-10T22:50:05.933Z,99.90
2018-07-10T22:52:42.321Z,99.90
2018-07-10T22:55:10.762Z,99.90
2018-07-10T22:57:39.175Z,99.90
2018-07-10T23:00:07.649Z,99.90
2018-07-10T23:02:36.035Z,99.90
2018-07-10T23:05:04.422Z,99.90
2018-07-10T23:07:32.943Z,99.90
2018-07-10T23:10:01.308Z,99.90
2018-07-10T23:12:29.713Z,99.90
2018-07-10T23:14:58.125Z,99.90
2018-07-10T23:17:26.481Z,99.90
2018-07-10T23:19:54.818Z,99.90
2018-07-10T23:22:33.422Z,99.90
2018-07-10T23:25:01.815Z,99.90
2018-07-10T23:27:30.210Z,99.90
2018-07-10T23:29:58.565Z,99.90
2018-07-10T23:32:26.949Z,99.90
2018-07-10T23:34:55.356Z,99.90
2018-07-10T23:37:23.764Z,99.90
2018-07-10T23:39:56.105Z,99.90
2018-07-10T23:42:29.846Z,99.90
2018-07-10T23:45:01.695Z,99.90
2018-07-10T23:47:31.398Z,99.90
2018-07-10T23:52:41.610Z,99.90
2018-07-10T23:55:10.610Z,99.90
